sensor_id;sensor_type;location;lat;lon;timestamp;pressure;altitude;pressure_sealevel;temperature;humidity
9899;BME280;4988;49.238;6.698;2023-05-09T00:01:08;99377.31;;;15.27;100.00
9899;BME280;4988;49.238;6.698;2023-05-09T00:03:34;99374.75;;;15.25;100.00
9899;BME280;4988;49.238;6.698;2023-05-09T00:06:00;99368.72;;;15.22;100.00
9899;BME280;4988;49.238;6.698;2023-05-09T00:08:26;99370.81;;;15.17;100.00
9899;BME280;4988;49.238;6.698;2023-05-09T00:10:51;99377.31;;;15.12;100.00
9899;BME280;4988;49.238;6.698;2023-05-09T00:13:18;99382.09;;;15.07;100.00
9899;BME280;4988;49.238;6.698;2023-05-09T00:15:43;99381.09;;;14.94;100.00
9899;BME280;4988;49.238;6.698;2023-05-09T00:18:08;99381.47;;;14.88;100.00
9899;BME280;4988;49.238;6.698;2023-05-09T00:20:34;99383.09;;;14.76;100.00
9899;BME280;4988;49.238;6.698;2023-05-09T00:23:00;99387.41;;;14.62;100.00
9899;BME280;4988;49.238;6.698;2023-05-09T00:25:25;99387.88;;;14.55;100.00
9899;BME280;4988;49.238;6.698;2023-05-09T00:27:50;99376.72;;;14.46;100.00
9899;BME280;4988;49.238;6.698;2023-05-09T00:30:16;99380.38;;;14.45;100.00
9899;BME280;4988;49.238;6.698;2023-05-09T00:32:41;99378.03;;;14.39;100.00
9899;BME280;4988;49.238;6.698;2023-05-09T00:35:07;99376.31;;;14.38;100.00
9899;BME280;4988;49.238;6.698;2023-05-09T00:37:34;99380.03;;;14.36;100.00
9899;BME280;4988;49.238;6.698;2023-05-09T00:39:59;99369.94;;;14.25;100.00
9899;BME280;4988;49.238;6.698;2023-05-09T00:42:24;99372.63;;;14.25;100.00
9899;BME280;4988;49.238;6.698;2023-05-09T00:44:50;99372.81;;;14.22;100.00
9899;BME280;4988;49.238;6.698;2023-05-09T00:47:15;99381.78;;;14.21;100.00
9899;BME280;4988;49.238;6.698;2023-05-09T00:49:40;99375.06;;;14.13;100.00
9899;BME280;4988;49.238;6.698;2023-05-09T00:52:05;99377.03;;;14.10;100.00
9899;BME280;4988;49.238;6.698;2023-05-09T00:54:31;99380.56;;;14.10;100.00
9899;BME280;4988;49.238;6.698;2023-05-09T00:56:56;99369.09;;;14.08;100.00
9899;BME280;4988;49.238;6.698;2023-05-09T00:59:22;99361.91;;;14.09;100.00
9899;BME280;4988;49.238;6.698;2023-05-09T01:01:47;99368.16;;;14.09;100.00
9899;BME280;4988;49.238;6.698;2023-05-09T01:04:13;99358.50;;;14.07;100.00
9899;BME280;4988;49.238;6.698;2023-05-09T01:06:57;99351.41;;;14.06;100.00
9899;BME280;4988;49.238;6.698;2023-05-09T01:12:34;99353.72;;;14.28;100.00
9899;BME280;4988;49.238;6.698;2023-05-09T01:15:13;99347.75;;;14.23;100.00
9899;BME280;4988;49.238;6.698;2023-05-09T01:18:38;99344.72;;;14.29;100.00
9899;BME280;4988;49.238;6.698;2023-05-09T01:20:52;99340.28;;;14.44;100.00
9899;BME280;4988;49.238;6.698;2023-05-09T01:29:42;99333.34;;;14.25;100.00
9899;BME280;4988;49.238;6.698;2023-05-09T01:32:12;99337.22;;;14.20;100.00
9899;BME280;4988;49.238;6.698;2023-05-09T01:34:42;99326.16;;;14.26;100.00
9899;BME280;4988;49.238;6.698;2023-05-09T01:37:08;99326.16;;;14.26;100.00
9899;BME280;4988;49.238;6.698;2023-05-09T01:39:37;99319.94;;;14.25;100.00
9899;BME280;4988;49.238;6.698;2023-05-09T01:42:06;99319.06;;;14.25;100.00
9899;BME280;4988;49.238;6.698;2023-05-09T01:44:42;99318.91;;;14.28;100.00
9899;BME280;4988;49.238;6.698;2023-05-09T01:47:10;99311.63;;;14.30;100.00
9899;BME280;4988;49.238;6.698;2023-05-09T01:49:37;99307.31;;;14.27;100.00
9899;BME280;4988;49.238;6.698;2023-05-09T01:52:07;99307.31;;;14.27;100.00
9899;BME280;4988;49.238;6.698;2023-05-09T01:54:33;99309.28;;;14.24;100.00
9899;BME280;4988;49.238;6.698;2023-05-09T01:57:02;99309.28;;;14.24;100.00
9899;BME280;4988;49.238;6.698;2023-05-09T01:59:28;99303.00;;;14.25;100.00
9899;BME280;4988;49.238;6.698;2023-05-09T02:01:54;99299.94;;;14.31;100.00
9899;BME280;4988;49.238;6.698;2023-05-09T02:04:20;99298.47;;;14.41;100.00
9899;BME280;4988;49.238;6.698;2023-05-09T02:06:47;99292.06;;;14.44;100.00
9899;BME280;4988;49.238;6.698;2023-05-09T02:09:17;99291.28;;;14.42;100.00
9899;BME280;4988;49.238;6.698;2023-05-09T02:11:42;99290.50;;;14.40;100.00
9899;BME280;4988;49.238;6.698;2023-05-09T02:14:08;99300.75;;;14.33;100.00
9899;BME280;4988;49.238;6.698;2023-05-09T02:16:33;99303.34;;;14.19;100.00
9899;BME280;4988;49.238;6.698;2023-05-09T02:18:59;99307.34;;;14.11;100.00
9899;BME280;4988;49.238;6.698;2023-05-09T02:21:24;99314.44;;;13.96;100.00
9899;BME280;4988;49.238;6.698;2023-05-09T02:23:50;99312.47;;;13.84;100.00
9899;BME280;4988;49.238;6.698;2023-05-09T02:26:15;99318.41;;;13.73;100.00
9899;BME280;4988;49.238;6.698;2023-05-09T02:28:43;99308.25;;;13.64;100.00
9899;BME280;4988;49.238;6.698;2023-05-09T02:31:09;99315.41;;;13.63;100.00
9899;BME280;4988;49.238;6.698;2023-05-09T02:33:37;99319.13;;;13.61;100.00
9899;BME280;4988;49.238;6.698;2023-05-09T02:36:03;99311.63;;;13.67;100.00
9899;BME280;4988;49.238;6.698;2023-05-09T02:38:29;99307.38;;;13.79;100.00
9899;BME280;4988;49.238;6.698;2023-05-09T02:40:54;99302.56;;;13.86;100.00
9899;BME280;4988;49.238;6.698;2023-05-09T02:43:20;99301.50;;;13.89;100.00
9899;BME280;4988;49.238;6.698;2023-05-09T02:45:45;99296.75;;;13.94;100.00
9899;BME280;4988;49.238;6.698;2023-05-09T02:48:11;99301.31;;;13.92;100.00
9899;BME280;4988;49.238;6.698;2023-05-09T02:50:36;99304.97;;;13.91;100.00
9899;BME280;4988;49.238;6.698;2023-05-09T02:53:07;99303.66;;;13.98;100.00
9899;BME280;4988;49.238;6.698;2023-05-09T02:55:32;99306.50;;;13.95;100.00
9899;BME280;4988;49.238;6.698;2023-05-09T02:57:57;99304.63;;;13.97;100.00
9899;BME280;4988;49.238;6.698;2023-05-09T03:00:23;99300.22;;;13.96;100.00
9899;BME280;4988;49.238;6.698;2023-05-09T03:02:50;99304.63;;;13.97;100.00
9899;BME280;4988;49.238;6.698;2023-05-09T03:05:15;99300.38;;;13.93;100.00
9899;BME280;4988;49.238;6.698;2023-05-09T03:07:42;99292.94;;;13.98;100.00
9899;BME280;4988;49.238;6.698;2023-05-09T03:10:08;99292.69;;;14.03;100.00
9899;BME280;4988;49.238;6.698;2023-05-09T03:12:36;99292.34;;;13.93;100.00
9899;BME280;4988;49.238;6.698;2023-05-09T03:15:03;99290.56;;;13.93;100.00
9899;BME280;4988;49.238;6.698;2023-05-09T03:17:28;99292.69;;;14.03;100.00
9899;BME280;4988;49.238;6.698;2023-05-09T03:19:53;99284.97;;;14.12;100.00
9899;BME280;4988;49.238;6.698;2023-05-09T03:22:19;99285.84;;;14.13;100.00
9899;BME280;4988;49.238;6.698;2023-05-09T03:24:44;99286.59;;;14.15;100.00
9899;BME280;4988;49.238;6.698;2023-05-09T03:27:09;99290.59;;;14.08;100.00
9899;BME280;4988;49.238;6.698;2023-05-09T03:29:35;99278.44;;;14.02;100.00
9899;BME280;4988;49.238;6.698;2023-05-09T03:32:00;99278.34;;;14.04;100.00
9899;BME280;4988;49.238;6.698;2023-05-09T03:34:26;99276.53;;;14.04;100.00
9899;BME280;4988;49.238;6.698;2023-05-09T03:36:51;99277.22;;;13.92;100.00
9899;BME280;4988;49.238;6.698;2023-05-09T03:39:16;99277.22;;;13.92;100.00
9899;BME280;4988;49.238;6.698;2023-05-09T03:41:41;99276.66;;;13.87;100.00
9899;BME280;4988;49.238;6.698;2023-05-09T03:44:08;99277.00;;;13.64;100.00
9899;BME280;4988;49.238;6.698;2023-05-09T03:46:33;99275.63;;;13.57;100.00
9899;BME280;4988;49.238;6.698;2023-05-09T03:48:59;99271.31;;;13.55;100.00
9899;BME280;4988;49.238;6.698;2023-05-09T03:51:24;99262.00;;;13.62;100.00
9899;BME280;4988;49.238;6.698;2023-05-09T03:53:50;99264.75;;;13.60;100.00
9899;BME280;4988;49.238;6.698;2023-05-09T03:56:15;99264.41;;;13.66;100.00
9899;BME280;4988;49.238;6.698;2023-05-09T03:58:40;99260.97;;;13.64;100.00
9899;BME280;4988;49.238;6.698;2023-05-09T04:01:06;99259.75;;;13.70;100.00
9899;BME280;4988;49.238;6.698;2023-05-09T04:03:31;99249.22;;;13.67;100.00
9899;BME280;4988;49.238;6.698;2023-05-09T04:05:56;99241.97;;;13.69;100.00
9899;BME280;4988;49.238;6.698;2023-05-09T04:08:22;99238.81;;;13.62;100.00
9899;BME280;4988;49.238;6.698;2023-05-09T04:10:48;99235.34;;;13.60;100.00
9899;BME280;4988;49.238;6.698;2023-05-09T04:13:14;99235.16;;;13.63;100.00
9899;BME280;4988;49.238;6.698;2023-05-09T04:15:40;99234.41;;;13.61;100.00
9899;BME280;4988;49.238;6.698;2023-05-09T04:18:06;99234.47;;;13.60;100.00
9899;BME280;4988;49.238;6.698;2023-05-09T04:20:31;99224.66;;;13.60;100.00
9899;BME280;4988;49.238;6.698;2023-05-09T04:22:56;99226.44;;;13.60;100.00
9899;BME280;4988;49.238;6.698;2023-05-09T04:25:23;99220.94;;;13.63;100.00
9899;BME280;4988;49.238;6.698;2023-05-09T04:27:48;99229.53;;;13.68;100.00
9899;BME280;4988;49.238;6.698;2023-05-09T04:30:14;99224.03;;;13.71;100.00
9899;BME280;4988;49.238;6.698;2023-05-09T04:32:39;99225.56;;;13.75;100.00
9899;BME280;4988;49.238;6.698;2023-05-09T04:35:09;99230.06;;;13.75;100.00
9899;BME280;4988;49.238;6.698;2023-05-09T04:37:35;99225.41;;;13.78;100.00
9899;BME280;4988;49.238;6.698;2023-05-09T04:40:00;99219.84;;;13.81;100.00
9899;BME280;4988;49.238;6.698;2023-05-09T04:42:26;99225.22;;;13.81;100.00
9899;BME280;4988;49.238;6.698;2023-05-09T04:44:51;99227.09;;;13.79;100.00
9899;BME280;4988;49.238;6.698;2023-05-09T04:47:16;99229.75;;;13.65;100.00
9899;BME280;4988;49.238;6.698;2023-05-09T04:49:42;99229.13;;;13.60;100.00
9899;BME280;4988;49.238;6.698;2023-05-09T04:52:07;99230.44;;;13.53;100.00
9899;BME280;4988;49.238;6.698;2023-05-09T04:54:32;99223.38;;;13.51;100.00
9899;BME280;4988;49.238;6.698;2023-05-09T04:56:58;99228.03;;;13.48;100.00
9899;BME280;4988;49.238;6.698;2023-05-09T04:59:23;99228.38;;;13.42;100.00
9899;BME280;4988;49.238;6.698;2023-05-09T05:01:48;99216.88;;;13.56;100.00
9899;BME280;4988;49.238;6.698;2023-05-09T05:04:14;99203.41;;;13.57;100.00
9899;BME280;4988;49.238;6.698;2023-05-09T05:06:39;99202.78;;;13.68;100.00
9899;BME280;4988;49.238;6.698;2023-05-09T05:09:04;99207.19;;;13.69;100.00
9899;BME280;4988;49.238;6.698;2023-05-09T05:11:30;99208.16;;;13.68;100.00
9899;BME280;4988;49.238;6.698;2023-05-09T05:13:55;99203.16;;;13.62;100.00
9899;BME280;4988;49.238;6.698;2023-05-09T05:16:20;99210.38;;;13.60;100.00
9899;BME280;4988;49.238;6.698;2023-05-09T05:18:46;99202.78;;;13.68;100.00
9899;BME280;4988;49.238;6.698;2023-05-09T05:21:11;99207.63;;;13.77;100.00
9899;BME280;4988;49.238;6.698;2023-05-09T05:23:36;99215.56;;;13.63;100.00
9899;BME280;4988;49.238;6.698;2023-05-09T05:26:02;99205.22;;;13.57;100.00
9899;BME280;4988;49.238;6.698;2023-05-09T05:28:27;99209.63;;;13.58;100.00
9899;BME280;4988;49.238;6.698;2023-05-09T05:30:53;99207.13;;;13.55;100.00
9899;BME280;4988;49.238;6.698;2023-05-09T05:33:18;99206.59;;;13.64;100.00
9899;BME280;4988;49.238;6.698;2023-05-09T05:35:43;99205.13;;;13.58;100.00
9899;BME280;4988;49.238;6.698;2023-05-09T05:38:12;99212.47;;;13.55;100.00
9899;BME280;4988;49.238;6.698;2023-05-09T05:40:37;99210.00;;;13.51;100.00
9899;BME280;4988;49.238;6.698;2023-05-09T05:43:02;99213.88;;;13.46;100.00
9899;BME280;4988;49.238;6.698;2023-05-09T05:45:27;99215.59;;;13.47;100.00
9899;BME280;4988;49.238;6.698;2023-05-09T05:47:54;99218.16;;;13.48;100.00
9899;BME280;4988;49.238;6.698;2023-05-09T05:50:20;99212.81;;;13.48;100.00
9899;BME280;4988;49.238;6.698;2023-05-09T05:52:45;99200.94;;;13.54;100.00
9899;BME280;4988;49.238;6.698;2023-05-09T05:55:10;99210.47;;;13.58;100.00
9899;BME280;4988;49.238;6.698;2023-05-09T05:57:36;99194.88;;;13.66;100.00
9899;BME280;4988;49.238;6.698;2023-05-09T06:00:03;99197.78;;;13.78;100.00
9899;BME280;4988;49.238;6.698;2023-05-09T06:02:31;99189.97;;;13.89;100.00
9899;BME280;4988;49.238;6.698;2023-05-09T06:04:57;99187.72;;;13.97;100.00
9899;BME280;4988;49.238;6.698;2023-05-09T06:07:22;99190.78;;;14.06;100.00
9899;BME280;4988;49.238;6.698;2023-05-09T06:09:47;99186.19;;;14.08;100.00
9899;BME280;4988;49.238;6.698;2023-05-09T06:12:13;99190.59;;;14.09;100.00
9899;BME280;4988;49.238;6.698;2023-05-09T06:14:41;99177.63;;;14.17;100.00
9899;BME280;4988;49.238;6.698;2023-05-09T06:17:07;99169.31;;;14.22;100.00
9899;BME280;4988;49.238;6.698;2023-05-09T06:19:32;99169.13;;;14.25;100.00
9899;BME280;4988;49.238;6.698;2023-05-09T06:21:57;99172.28;;;14.31;100.00
9899;BME280;4988;49.238;6.698;2023-05-09T06:24:23;99168.56;;;14.34;100.00
9899;BME280;4988;49.238;6.698;2023-05-09T06:26:49;99163.50;;;14.44;100.00
9899;BME280;4988;49.238;6.698;2023-05-09T06:29:15;99165.69;;;14.52;100.00
9899;BME280;4988;49.238;6.698;2023-05-09T06:31:40;99165.59;;;14.53;100.00
9899;BME280;4988;49.238;6.698;2023-05-09T06:34:06;99160.81;;;14.58;100.00
9899;BME280;4988;49.238;6.698;2023-05-09T06:36:32;99158.16;;;14.73;100.00
9899;BME280;4988;49.238;6.698;2023-05-09T06:38:57;99154.72;;;14.85;100.00
9899;BME280;4988;49.238;6.698;2023-05-09T06:41:23;99149.50;;;14.96;100.00
9899;BME280;4988;49.238;6.698;2023-05-09T06:43:48;99153.72;;;15.15;100.00
9899;BME280;4988;49.238;6.698;2023-05-09T06:46:14;99143.88;;;15.28;100.00
9899;BME280;4988;49.238;6.698;2023-05-09T06:48:39;99138.38;;;15.44;100.00
9899;BME280;4988;49.238;6.698;2023-05-09T06:51:05;99129.31;;;15.60;100.00
9899;BME280;4988;49.238;6.698;2023-05-09T06:53:30;99132.66;;;15.76;100.00
9899;BME280;4988;49.238;6.698;2023-05-09T06:55:55;99127.56;;;15.86;100.00
9899;BME280;4988;49.238;6.698;2023-05-09T06:58:21;99128.44;;;16.00;100.00
9899;BME280;4988;49.238;6.698;2023-05-09T07:00:47;99120.59;;;16.10;100.00
9899;BME280;4988;49.238;6.698;2023-05-09T07:03:12;99113.66;;;16.20;100.00
9899;BME280;4988;49.238;6.698;2023-05-09T07:05:37;99115.34;;;16.21;100.00
9899;BME280;4988;49.238;6.698;2023-05-09T07:08:03;99109.88;;;16.22;100.00
9899;BME280;4988;49.238;6.698;2023-05-09T07:10:28;99112.22;;;16.27;100.00
9899;BME280;4988;49.238;6.698;2023-05-09T07:12:54;99106.22;;;16.36;100.00
9899;BME280;4988;49.238;6.698;2023-05-09T07:15:19;99102.78;;;16.34;100.00
9899;BME280;4988;49.238;6.698;2023-05-09T07:17:45;99097.09;;;16.52;100.00
9899;BME280;4988;49.238;6.698;2023-05-09T07:20:10;99099.09;;;16.61;100.00
9899;BME280;4988;49.238;6.698;2023-05-09T07:22:36;99088.00;;;16.66;100.00
9899;BME280;4988;49.238;6.698;2023-05-09T07:25:01;99088.22;;;16.76;100.00
9899;BME280;4988;49.238;6.698;2023-05-09T07:27:27;99080.66;;;16.81;100.00
9899;BME280;4988;49.238;6.698;2023-05-09T07:29:52;99082.38;;;16.82;100.00
9899;BME280;4988;49.238;6.698;2023-05-09T07:32:20;99084.50;;;16.89;100.00
9899;BME280;4988;49.238;6.698;2023-05-09T07:34:48;99081.50;;;16.94;100.00
9899;BME280;4988;49.238;6.698;2023-05-09T07:37:13;99075.22;;;17.07;100.00
9899;BME280;4988;49.238;6.698;2023-05-09T07:39:38;99081.41;;;17.20;100.00
9899;BME280;4988;49.238;6.698;2023-05-09T07:42:03;99072.13;;;17.24;100.00
9899;BME280;4988;49.238;6.698;2023-05-09T07:44:29;99069.47;;;17.35;100.00
9899;BME280;4988;49.238;6.698;2023-05-09T07:46:55;99063.16;;;17.48;100.00
9899;BME280;4988;49.238;6.698;2023-05-09T07:49:23;99070.66;;;17.44;100.00
9899;BME280;4988;49.238;6.698;2023-05-09T07:51:48;99061.09;;;17.51;100.00
9899;BME280;4988;49.238;6.698;2023-05-09T07:54:13;99055.19;;;17.71;100.00
9899;BME280;4988;49.238;6.698;2023-05-09T07:56:39;99049.06;;;17.80;100.00
9899;BME280;4988;49.238;6.698;2023-05-09T07:59:04;99042.19;;;18.00;100.00
9899;BME280;4988;49.238;6.698;2023-05-09T08:01:29;99045.00;;;18.21;99.76
9899;BME280;4988;49.238;6.698;2023-05-09T08:03:55;99040.59;;;18.31;97.13
9899;BME280;4988;49.238;6.698;2023-05-09T08:06:20;99039.75;;;18.31;95.71
9899;BME280;4988;49.238;6.698;2023-05-09T08:08:45;99031.53;;;18.21;96.20
9899;BME280;4988;49.238;6.698;2023-05-09T08:11:11;99026.63;;;18.04;95.32
9899;BME280;4988;49.238;6.698;2023-05-09T08:13:36;99022.56;;;17.98;94.05
9899;BME280;4988;49.238;6.698;2023-05-09T08:16:01;99015.31;;;17.87;94.72
9899;BME280;4988;49.238;6.698;2023-05-09T08:18:27;99019.69;;;17.77;95.10
9899;BME280;4988;49.238;6.698;2023-05-09T08:20:52;99016.91;;;17.90;94.61
9899;BME280;4988;49.238;6.698;2023-05-09T08:23:17;99013.34;;;17.89;91.18
9899;BME280;4988;49.238;6.698;2023-05-09T08:25:43;99012.91;;;17.95;89.11
9899;BME280;4988;49.238;6.698;2023-05-09T08:28:08;99005.78;;;17.94;90.86
9899;BME280;4988;49.238;6.698;2023-05-09T08:30:34;99003.38;;;18.03;91.37
9899;BME280;4988;49.238;6.698;2023-05-09T08:32:59;98996.03;;;18.05;89.40
9899;BME280;4988;49.238;6.698;2023-05-09T08:35:25;98997.34;;;18.22;92.17
9899;BME280;4988;49.238;6.698;2023-05-09T08:37:50;98993.28;;;18.39;90.59
9899;BME280;4988;49.238;6.698;2023-05-09T08:40:16;98984.69;;;18.56;87.28
9899;BME280;4988;49.238;6.698;2023-05-09T08:42:42;98986.28;;;18.47;85.80
9899;BME280;4988;49.238;6.698;2023-05-09T08:45:09;98967.53;;;18.57;85.55
9899;BME280;4988;49.238;6.698;2023-05-09T08:47:36;98969.22;;;18.70;86.39
9899;BME280;4988;49.238;6.698;2023-05-09T08:50:03;98968.53;;;19.00;88.28
9899;BME280;4988;49.238;6.698;2023-05-09T08:52:32;98967.13;;;19.17;85.86
9899;BME280;4988;49.238;6.698;2023-05-09T08:54:59;98963.69;;;19.15;84.76
9899;BME280;4988;49.238;6.698;2023-05-09T08:57:26;98953.84;;;19.25;85.06
9899;BME280;4988;49.238;6.698;2023-05-09T08:59:51;98953.75;;;19.37;84.83
9899;BME280;4988;49.238;6.698;2023-05-09T09:02:17;98947.69;;;19.23;79.11
9899;BME280;4988;49.238;6.698;2023-05-09T09:04:43;98950.00;;;19.07;79.41
9899;BME280;4988;49.238;6.698;2023-05-09T09:07:09;98941.63;;;19.10;81.40
9899;BME280;4988;49.238;6.698;2023-05-09T09:09:38;98939.22;;;19.28;82.47
9899;BME280;4988;49.238;6.698;2023-05-09T09:12:08;98940.13;;;19.38;82.43
9899;BME280;4988;49.238;6.698;2023-05-09T09:14:37;98937.03;;;19.43;80.84
9899;BME280;4988;49.238;6.698;2023-05-09T09:17:04;98931.91;;;19.19;78.88
9899;BME280;4988;49.238;6.698;2023-05-09T09:19:33;98926.63;;;19.17;80.28
9899;BME280;4988;49.238;6.698;2023-05-09T09:22:02;98921.56;;;19.03;79.76
9899;BME280;4988;49.238;6.698;2023-05-09T09:24:29;98921.72;;;18.90;79.25
9899;BME280;4988;49.238;6.698;2023-05-09T09:26:55;98924.53;;;18.88;80.40
9899;BME280;4988;49.238;6.698;2023-05-09T09:29:20;98918.16;;;18.89;81.58
9899;BME280;4988;49.238;6.698;2023-05-09T09:31:51;98905.44;;;18.91;80.43
9899;BME280;4988;49.238;6.698;2023-05-09T09:34:21;98901.94;;;19.01;79.50
9899;BME280;4988;49.238;6.698;2023-05-09T09:36:47;98901.44;;;19.07;80.08
9899;BME280;4988;49.238;6.698;2023-05-09T09:39:13;98904.31;;;18.94;77.68
9899;BME280;4988;49.238;6.698;2023-05-09T09:41:39;98898.28;;;18.90;77.27
9899;BME280;4988;49.238;6.698;2023-05-09T09:44:16;98895.09;;;18.96;79.07
9899;BME280;4988;49.238;6.698;2023-05-09T09:46:49;98892.09;;;19.11;79.35
9899;BME280;4988;49.238;6.698;2023-05-09T09:49:17;98886.38;;;19.25;77.13
9899;BME280;4988;49.238;6.698;2023-05-09T09:51:43;98882.72;;;19.15;76.76
9899;BME280;4988;49.238;6.698;2023-05-09T09:54:10;98876.66;;;19.23;76.79
9899;BME280;4988;49.238;6.698;2023-05-09T09:56:41;98872.13;;;19.23;76.25
9899;BME280;4988;49.238;6.698;2023-05-09T09:59:11;98877.72;;;19.32;76.28
9899;BME280;4988;49.238;6.698;2023-05-09T10:04:21;98870.72;;;19.50;76.70
9899;BME280;4988;49.238;6.698;2023-05-09T10:06:51;98868.63;;;19.54;76.99
9899;BME280;4988;49.238;6.698;2023-05-09T10:09:17;98856.13;;;19.63;76.77
9899;BME280;4988;49.238;6.698;2023-05-09T10:11:43;98850.50;;;19.75;76.07
9899;BME280;4988;49.238;6.698;2023-05-09T10:14:11;98847.16;;;19.83;76.03
9899;BME280;4988;49.238;6.698;2023-05-09T10:16:36;98845.75;;;19.99;75.20
9899;BME280;4988;49.238;6.698;2023-05-09T10:19:02;98838.25;;;20.12;74.18
9899;BME280;4988;49.238;6.698;2023-05-09T10:21:28;98834.44;;;20.24;73.62
9899;BME280;4988;49.238;6.698;2023-05-09T10:23:54;98826.75;;;20.30;73.03
9899;BME280;4988;49.238;6.698;2023-05-09T10:26:23;98824.06;;;20.30;70.39
9899;BME280;4988;49.238;6.698;2023-05-09T10:28:56;98825.63;;;20.42;71.95
9899;BME280;4988;49.238;6.698;2023-05-09T10:31:26;98821.19;;;20.41;73.23
9899;BME280;4988;49.238;6.698;2023-05-09T10:33:52;98815.22;;;20.47;71.66
9899;BME280;4988;49.238;6.698;2023-05-09T10:36:20;98807.56;;;20.43;71.38
9899;BME280;4988;49.238;6.698;2023-05-09T10:38:50;98810.41;;;20.21;70.81
9899;BME280;4988;49.238;6.698;2023-05-09T10:41:19;98803.56;;;20.17;69.23
9899;BME280;4988;49.238;6.698;2023-05-09T10:43:46;98804.84;;;20.13;70.87
9899;BME280;4988;49.238;6.698;2023-05-09T10:46:11;98794.31;;;20.30;71.72
9899;BME280;4988;49.238;6.698;2023-05-09T10:48:38;98787.75;;;20.42;72.51
9899;BME280;4988;49.238;6.698;2023-05-09T10:51:04;98786.91;;;20.71;71.97
9899;BME280;4988;49.238;6.698;2023-05-09T10:56:04;98784.47;;;20.97;71.13
9899;BME280;4988;49.238;6.698;2023-05-09T10:58:32;98775.00;;;21.11;68.86
9899;BME280;4988;49.238;6.698;2023-05-09T11:00:59;98772.19;;;21.13;69.29
9899;BME280;4988;49.238;6.698;2023-05-09T11:03:26;98765.63;;;21.15;69.13
9899;BME280;4988;49.238;6.698;2023-05-09T11:05:56;98747.56;;;20.96;66.00
9899;BME280;4988;49.238;6.698;2023-05-09T11:08:29;98760.50;;;21.02;68.74
9899;BME280;4988;49.238;6.698;2023-05-09T11:11:05;98744.31;;;20.93;68.40
9899;BME280;4988;49.238;6.698;2023-05-09T11:13:32;98747.47;;;20.88;66.50
9899;BME280;4988;49.238;6.698;2023-05-09T11:18:30;98742.31;;;20.95;65.76
9899;BME280;4988;49.238;6.698;2023-05-09T11:20:56;98739.44;;;20.96;66.70
9899;BME280;4988;49.238;6.698;2023-05-09T11:23:25;98734.03;;;20.96;67.03
9899;BME280;4988;49.238;6.698;2023-05-09T11:25:52;98727.50;;;20.89;67.63
9899;BME280;4988;49.238;6.698;2023-05-09T11:28:28;98718.16;;;20.73;67.00
9899;BME280;4988;49.238;6.698;2023-05-09T11:31:08;98728.69;;;20.77;68.54
9899;BME280;4988;49.238;6.698;2023-05-09T11:33:36;98723.00;;;20.80;68.91
9899;BME280;4988;49.238;6.698;2023-05-09T11:39:08;98712.31;;;20.78;67.68
9899;BME280;4988;49.238;6.698;2023-05-09T11:41:45;98713.59;;;20.64;68.19
9899;BME280;4988;49.238;6.698;2023-05-09T11:44:19;98705.38;;;20.46;69.10
9899;BME280;4988;49.238;6.698;2023-05-09T11:46:45;98703.09;;;20.51;70.24
9899;BME280;4988;49.238;6.698;2023-05-09T11:49:11;98689.41;;;20.72;71.28
9899;BME280;4988;49.238;6.698;2023-05-09T11:51:37;98688.66;;;20.80;71.25
9899;BME280;4988;49.238;6.698;2023-05-09T11:54:03;98675.50;;;20.95;68.33
9899;BME280;4988;49.238;6.698;2023-05-09T11:56:29;98676.66;;;20.93;68.97
9899;BME280;4988;49.238;6.698;2023-05-09T11:58:55;98679.34;;;20.93;67.65
9899;BME280;4988;49.238;6.698;2023-05-09T12:01:21;98672.75;;;20.77;68.43
9899;BME280;4988;49.238;6.698;2023-05-09T12:03:47;98664.47;;;20.79;67.77
9899;BME280;4988;49.238;6.698;2023-05-09T12:06:17;98654.91;;;20.84;66.00
9899;BME280;4988;49.238;6.698;2023-05-09T12:08:45;98652.09;;;20.76;67.01
9899;BME280;4988;49.238;6.698;2023-05-09T12:11:12;98645.28;;;20.72;65.91
9899;BME280;4988;49.238;6.698;2023-05-09T12:13:51;98643.81;;;20.78;66.31
9899;BME280;4988;49.238;6.698;2023-05-09T12:16:17;98641.38;;;20.84;67.01
9899;BME280;4988;49.238;6.698;2023-05-09T12:18:48;98636.84;;;20.75;66.44
9899;BME280;4988;49.238;6.698;2023-05-09T12:21:13;98628.94;;;20.92;68.01
9899;BME280;4988;49.238;6.698;2023-05-09T12:23:39;98625.56;;;20.89;67.23
9899;BME280;4988;49.238;6.698;2023-05-09T12:26:05;98631.47;;;21.03;67.99
9899;BME280;4988;49.238;6.698;2023-05-09T12:28:31;98631.00;;;20.70;65.13
9899;BME280;4988;49.238;6.698;2023-05-09T12:30:57;98626.03;;;20.75;64.95
9899;BME280;4988;49.238;6.698;2023-05-09T12:33:23;98619.88;;;20.83;66.06
9899;BME280;4988;49.238;6.698;2023-05-09T12:36:02;98623.25;;;20.95;66.90
9899;BME280;4988;49.238;6.698;2023-05-09T12:38:28;98615.84;;;20.97;66.14
9899;BME280;4988;49.238;6.698;2023-05-09T12:41:04;98612.19;;;20.88;66.62
9899;BME280;4988;49.238;6.698;2023-05-09T12:43:32;98606.66;;;20.70;66.63
9899;BME280;4988;49.238;6.698;2023-05-09T12:45:58;98609.75;;;20.37;68.42
9899;BME280;4988;49.238;6.698;2023-05-09T12:48:23;98605.22;;;20.38;68.28
9899;BME280;4988;49.238;6.698;2023-05-09T12:50:50;98610.81;;;20.27;69.38
9899;BME280;4988;49.238;6.698;2023-05-09T12:53:23;98607.69;;;20.21;69.82
9899;BME280;4988;49.238;6.698;2023-05-09T12:55:49;98606.13;;;19.99;67.98
9899;BME280;4988;49.238;6.698;2023-05-09T12:58:15;98602.91;;;19.86;69.66
9899;BME280;4988;49.238;6.698;2023-05-09T13:00:44;98609.28;;;19.75;70.58
9899;BME280;4988;49.238;6.698;2023-05-09T13:03:26;98617.22;;;19.67;72.36
9899;BME280;4988;49.238;6.698;2023-05-09T13:05:55;98617.78;;;19.70;74.76
9899;BME280;4988;49.238;6.698;2023-05-09T13:08:21;98619.94;;;19.67;77.79
9899;BME280;4988;49.238;6.698;2023-05-09T13:10:47;98611.56;;;19.70;78.02
9899;BME280;4988;49.238;6.698;2023-05-09T13:13:15;98607.97;;;19.69;75.49
9899;BME280;4988;49.238;6.698;2023-05-09T13:15:42;98610.25;;;19.74;78.12
9899;BME280;4988;49.238;6.698;2023-05-09T13:18:08;98606.56;;;19.75;77.84
9899;BME280;4988;49.238;6.698;2023-05-09T13:20:33;98600.19;;;19.76;77.68
9899;BME280;4988;49.238;6.698;2023-05-09T13:22:59;98592.34;;;19.73;77.20
9899;BME280;4988;49.238;6.698;2023-05-09T13:25:24;98591.34;;;19.74;77.92
9899;BME280;4988;49.238;6.698;2023-05-09T13:27:50;98590.06;;;19.78;77.63
9899;BME280;4988;49.238;6.698;2023-05-09T13:30:17;98589.38;;;19.76;79.63
9899;BME280;4988;49.238;6.698;2023-05-09T13:32:42;98585.69;;;19.48;80.04